Time;durP1;ratioP1;P1;durP2;ratioP2;P2;SDS_P1;SDS_P2;PMS_P1;PMS_P2;Temp;Humidity;BMP_temperature;BMP_pressure;BME280_temperature;BME280_humidity;BME280_pressure;Samples;Min_cycle;Max_cycle;Signal;HPM_P1;HPM_P2
2022/09/18 00:01:10;;;;;;;12.78;9.68;;;;;;;15.58;73.85;97622.17;1622602;87;21112;-66
2022/09/18 00:03:38;;;;;;;12.80;9.80;;;;;;;15.55;73.88;97618.64;1621794;88;20907;-66
2022/09/18 00:06:11;;;;;;;9.68;8.58;;;;;;;15.57;73.85;97624.56;1622171;88;21182;-66
2022/09/18 00:08:38;;;;;;;9.50;8.10;;;;;;;15.60;73.49;97628.61;1624894;86;20933;-66
2022/09/18 00:11:06;;;;;;;9.85;8.33;;;;;;;15.59;73.32;97629.69;1622550;86;20961;-66
2022/09/18 00:13:35;;;;;;;9.60;7.78;;;;;;;15.54;73.18;97613.54;1624648;88;21021;-66
2022/09/18 00:16:02;;;;;;;12.20;8.10;;;;;;;15.50;72.86;97610.53;1620355;88;21553;-66
2022/09/18 00:18:30;;;;;;;8.73;7.42;;;;;;;15.49;72.60;97602.75;1624871;88;21259;-66
2022/09/18 00:21:06;;;;;;;10.30;7.97;;;;;;;15.49;72.49;97602.20;1624460;88;21003;-66
2022/09/18 00:23:32;;;;;;;9.70;7.72;;;;;;;15.50;72.29;97605.17;1619390;88;20937;-66
2022/09/18 00:25:59;;;;;;;9.48;7.30;;;;;;;15.48;72.05;97609.97;1621977;88;21482;-66
2022/09/18 00:28:25;;;;;;;8.00;7.20;;;;;;;15.40;72.03;97591.59;1621929;88;20978;-66
2022/09/18 00:30:52;;;;;;;8.65;7.75;;;;;;;15.38;72.15;97587.02;1622893;88;21298;-66
2022/09/18 00:33:19;;;;;;;9.20;7.95;;;;;;;15.35;72.20;97582.97;1623990;88;20961;-66
2022/09/18 00:35:46;;;;;;;9.33;6.97;;;;;;;15.35;72.21;97595.03;1619282;88;20944;-66
2022/09/18 00:38:12;;;;;;;8.05;7.20;;;;;;;15.37;72.15;97594.24;1622628;88;21093;-66
2022/09/18 00:40:39;;;;;;;9.40;7.22;;;;;;;15.36;72.15;97583.23;1622996;88;20940;-66
2022/09/18 00:43:23;;;;;;;7.97;6.53;;;;;;;15.34;72.34;97582.67;1623499;88;21488;-66
2022/09/18 00:45:55;;;;;;;19.52;7.15;;;;;;;15.33;72.21;97584.24;1619369;88;21487;-66
2022/09/18 00:48:21;;;;;;;8.25;6.40;;;;;;;15.29;72.21;97593.31;1616102;88;20992;-66
2022/09/18 00:50:48;;;;;;;10.38;6.62;;;;;;;15.24;72.09;97576.36;1625193;88;21057;-66
2022/09/18 00:53:15;;;;;;;12.30;6.47;;;;;;;15.19;72.05;97566.39;1621496;88;21069;-66
2022/09/18 00:55:41;;;;;;;10.63;7.08;;;;;;;15.14;72.09;97556.13;1619413;88;22065;-66
2022/09/18 00:58:08;;;;;;;9.40;6.53;;;;;;;15.12;72.18;97556.90;1623033;88;21021;-66
2022/09/18 01:00:35;;;;;;;14.55;6.83;;;;;;;15.12;72.26;97551.55;1623097;88;21061;-66
2022/09/18 01:03:03;;;;;;;10.65;7.35;;;;;;;15.11;72.30;97553.92;1619056;88;20992;-66
2022/09/18 01:06:07;;;;;;;11.63;7.33;;;;;;;15.08;72.23;97551.73;1623695;88;20980;-66
2022/09/18 01:08:55;;;;;;;12.05;6.08;;;;;;;15.03;72.23;97551.14;1621891;88;21185;-66
2022/09/18 01:11:39;;;;;;;15.35;6.17;;;;;;;15.00;72.27;97540.91;1616034;88;20993;-66
2022/09/18 01:14:23;;;;;;;10.65;6.15;;;;;;;14.98;72.46;97543.55;1621405;88;20905;-66
2022/09/18 01:17:32;;;;;;;12.43;5.83;;;;;;;14.93;72.37;97534.92;1619564;88;21057;-66
2022/09/18 01:20:30;;;;;;;8.03;6.03;;;;;;;14.90;72.46;97535.41;1623223;88;20981;-66
2022/09/18 01:23:26;;;;;;;7.58;5.60;;;;;;;14.88;72.40;97526.81;1622278;88;21382;-66
2022/09/18 01:26:35;;;;;;;7.47;5.65;;;;;;;14.84;72.35;97525.66;1618425;88;20969;-66
2022/09/18 01:29:14;;;;;;;7.15;5.50;;;;;;;14.79;72.37;97525.06;1622932;88;21069;-64
2022/09/18 01:31:55;;;;;;;7.70;6.35;;;;;;;14.78;72.43;97519.41;1618331;88;21618;-65
2022/09/18 01:34:33;;;;;;;7.65;6.12;;;;;;;14.77;72.52;97516.47;1618821;88;21071;-65
2022/09/18 01:37:12;;;;;;;6.80;6.10;;;;;;;14.75;72.42;97516.44;1622341;88;21243;-64
2022/09/18 01:39:56;;;;;;;12.68;6.40;;;;;;;14.73;72.53;97521.23;1616049;88;20983;-66
2022/09/18 01:42:25;;;;;;;8.75;6.70;;;;;;;14.72;72.74;97524.95;1624755;88;20989;-66
2022/09/18 01:44:53;;;;;;;7.33;6.08;;;;;;;14.73;72.87;97515.32;1625785;88;20992;-65
2022/09/18 01:47:20;;;;;;;7.42;6.42;;;;;;;14.73;72.92;97516.66;1599436;88;20984;-66
2022/09/18 01:49:46;;;;;;;6.30;5.70;;;;;;;14.70;73.23;97518.48;1622331;88;21266;-66
2022/09/18 01:52:27;;;;;;;7.03;6.33;;;;;;;14.72;73.45;97527.10;1621705;88;20992;-65
2022/09/18 01:54:56;;;;;;;9.15;6.03;;;;;;;14.72;73.75;97528.96;1616277;88;20977;-65
2022/09/18 01:57:30;;;;;;;8.45;6.40;;;;;;;14.72;74.00;97515.06;1621445;88;21034;-65
2022/09/18 02:00:01;;;;;;;7.85;6.37;;;;;;;14.74;74.01;97508.92;1617946;88;21041;-65
2022/09/18 02:02:37;;;;;;;7.87;6.03;;;;;;;14.73;74.04;97513.98;1624355;88;21983;-66
2022/09/18 02:05:06;;;;;;;7.25;6.05;;;;;;;14.74;74.00;97514.80;1622485;88;20980;-66
2022/09/18 02:07:50;;;;;;;8.95;6.15;;;;;;;14.73;74.13;97510.52;1622471;88;20960;-66
2022/09/18 02:10:18;;;;;;;8.88;6.53;;;;;;;14.68;74.40;97508.55;1620587;88;21115;-66
2022/09/18 02:12:44;;;;;;;6.60;6.00;;;;;;;14.61;74.79;97499.06;1622449;87;21178;-66
2022/09/18 02:15:12;;;;;;;7.85;7.15;;;;;;;14.56;75.14;97500.33;1628673;86;21183;-66
2022/09/18 02:17:48;;;;;;;7.53;6.83;;;;;;;14.52;75.32;97504.00;1624600;88;21006;-66
2022/09/18 02:20:19;;;;;;;6.62;5.92;;;;;;;14.52;75.44;97505.89;1625484;88;21066;-67
2022/09/18 02:22:46;;;;;;;7.33;6.35;;;;;;;14.48;75.38;97506.89;1626888;87;21074;-66
2022/09/18 02:25:16;;;;;;;11.80;6.53;;;;;;;14.45;75.40;97506.55;1626706;86;21056;-66
2022/09/18 02:27:43;;;;;;;5.90;5.40;;;;;;;14.44;75.64;97501.75;1627039;87;21268;-66
2022/09/18 02:30:11;;;;;;;7.08;5.87;;;;;;;14.48;75.84;97494.03;1626991;87;21002;-66
2022/09/18 02:32:39;;;;;;;10.48;6.58;;;;;;;14.48;75.77;97490.02;1627106;87;21513;-66
2022/09/18 02:35:07;;;;;;;7.70;6.97;;;;;;;14.46;75.43;97486.27;1628545;86;20983;-66
2022/09/18 02:37:48;;;;;;;6.78;6.08;;;;;;;14.45;75.25;97479.28;1626432;86;21077;-66
2022/09/18 02:40:36;;;;;;;6.97;6.37;;;;;;;14.41;75.03;97471.47;1625444;87;21203;-66
2022/09/18 02:43:26;;;;;;;6.62;6.00;;;;;;;14.36;75.10;97454.52;1626202;87;21595;-66
2022/09/18 02:46:21;;;;;;;7.17;5.85;;;;;;;14.32;75.06;97423.42;1639679;87;21542;-66
2022/09/18 02:49:03;;;;;;;7.07;6.33;;;;;;;14.29;75.12;97414.52;1623749;88;21093;-65
2022/09/18 02:52:06;;;;;;;6.95;5.95;;;;;;;14.28;75.15;97418.78;1622723;88;21008;-66
2022/09/18 02:54:49;;;;;;;6.58;6.00;;;;;;;14.23;75.23;97421.64;1623908;87;21527;-65
2022/09/18 02:57:30;;;;;;;8.18;5.75;;;;;;;14.23;75.40;97432.89;1621051;88;21534;-66
2022/09/18 02:59:57;;;;;;;7.00;5.75;;;;;;;14.26;75.50;97439.06;1624456;88;21031;-66
2022/09/18 03:02:25;;;;;;;7.97;6.03;;;;;;;14.28;75.62;97451.69;1624895;87;21160;-66
2022/09/18 03:04:52;;;;;;;8.90;5.65;;;;;;;14.30;75.66;97459.46;1624701;87;21133;-65
2022/09/18 03:07:24;;;;;;;10.72;6.12;;;;;;;14.29;75.61;97468.00;1618118;88;21196;-66
2022/09/18 03:09:50;;;;;;;10.88;5.67;;;;;;;14.26;75.76;97459.12;1624448;88;21540;-66
2022/09/18 03:12:17;;;;;;;7.75;5.40;;;;;;;14.26;75.77;97452.99;1624494;88;21021;-66
2022/09/18 03:14:46;;;;;;;7.47;5.65;;;;;;;14.24;75.67;97458.05;1595440;89;21077;-66
2022/09/18 03:17:14;;;;;;;9.00;5.83;;;;;;;14.21;75.65;97448.34;1596074;89;21638;-65
2022/09/18 03:19:43;;;;;;;8.13;5.03;;;;;;;14.18;75.79;97447.52;1595812;90;21192;-65
2022/09/18 03:22:11;;;;;;;6.35;5.00;;;;;;;14.16;75.79;97437.56;1595886;89;21093;-66
2022/09/18 03:24:37;;;;;;;7.03;4.90;;;;;;;14.10;75.88;97424.63;1596075;89;20998;-66
2022/09/18 03:27:05;;;;;;;6.12;4.37;;;;;;;14.03;75.96;97423.98;1596046;89;21002;-66
2022/09/18 03:29:32;;;;;;;5.00;4.50;;;;;;;14.02;76.06;97412.21;1596192;89;20959;-66
2022/09/18 03:32:00;;;;;;;5.78;4.70;;;;;;;13.99;75.97;97416.70;1596077;89;21173;-66
2022/09/18 03:34:27;;;;;;;6.53;4.78;;;;;;;13.95;75.95;97420.89;1596690;89;21126;-66
2022/09/18 03:36:54;;;;;;;7.45;5.00;;;;;;;13.90;75.93;97423.47;1595870;89;21076;-66
2022/09/18 03:39:21;;;;;;;5.17;4.72;;;;;;;13.86;76.07;97425.02;1596025;89;21005;-66
2022/09/18 03:41:49;;;;;;;8.58;4.58;;;;;;;13.84;76.26;97423.94;1596328;89;20973;-65
2022/09/18 03:44:16;;;;;;;6.00;4.37;;;;;;;13.84;76.44;97416.44;1596427;89;21295;-66
2022/09/18 03:46:44;;;;;;;4.22;3.83;;;;;;;13.85;76.46;97399.33;1595859;89;21081;-65
2022/09/18 03:49:11;;;;;;;4.15;3.85;;;;;;;13.85;76.47;97396.66;1595983;89;21543;-66
2022/09/18 03:51:39;;;;;;;4.67;4.28;;;;;;;13.85;76.41;97408.69;1595989;89;20961;-65
2022/09/18 03:54:06;;;;;;;4.70;4.05;;;;;;;13.86;76.51;97395.63;1597104;89;21611;-65
2022/09/18 03:56:37;;;;;;;6.25;4.20;;;;;;;13.87;76.54;97379.88;1595099;89;21325;-66
2022/09/18 03:59:23;;;;;;;5.22;4.00;;;;;;;13.85;76.44;97376.61;1595939;89;21034;-66
2022/09/18 04:02:00;;;;;;;4.42;3.83;;;;;;;13.84;76.35;97369.67;1587414;89;21042;-66
2022/09/18 04:04:27;;;;;;;7.10;4.00;;;;;;;13.82;76.41;97375.23;1599054;89;21563;-66
2022/09/18 04:07:13;;;;;;;4.97;3.30;;;;;;;13.82;76.32;97379.80;1595398;89;21056;-66
2022/09/18 04:09:59;;;;;;;4.80;3.98;;;;;;;13.77;76.27;97381.02;1592197;89;22061;-66
2022/09/18 04:12:26;;;;;;;5.78;3.77;;;;;;;13.72;76.33;97376.92;1596088;89;20939;-66
2022/09/18 04:14:57;;;;;;;5.25;4.17;;;;;;;13.69;76.29;97383.55;1613827;88;21046;-65
2022/09/18 04:17:24;;;;;;;6.10;3.58;;;;;;;13.62;76.19;97369.55;1619298;88;21053;-66
2022/09/18 04:19:50;;;;;;;4.20;3.80;;;;;;;13.57;76.18;97370.79;1616590;88;21105;-66
2022/09/18 04:22:17;;;;;;;5.12;4.03;;;;;;;13.57;76.30;97370.79;1619787;88;21800;-66
2022/09/18 04:24:45;;;;;;;5.15;3.87;;;;;;;13.57;76.31;97381.47;1611335;88;21053;-66
2022/09/18 04:27:13;;;;;;;6.50;3.80;;;;;;;13.56;76.36;97379.32;1620586;88;20977;-66
2022/09/18 04:29:40;;;;;;;4.92;3.90;;;;;;;13.53;76.29;97385.14;1617720;88;20953;-66
2022/09/18 04:32:08;;;;;;;5.25;4.72;;;;;;;13.50;76.38;97376.27;1617462;88;21594;-66
2022/09/18 04:34:35;;;;;;;5.00;4.50;;;;;;;13.47;76.42;97371.95;1615541;88;21141;-66
2022/09/18 04:37:01;;;;;;;6.35;5.20;;;;;;;13.46;76.55;97368.45;1619338;88;21577;-66
2022/09/18 04:39:31;;;;;;;4.47;4.08;;;;;;;13.47;76.50;97364.75;1618301;88;21110;-66
2022/09/18 04:41:59;;;;;;;9.58;5.47;;;;;;;13.47;76.51;97366.60;1616401;88;21520;-65
2022/09/18 04:44:26;;;;;;;5.47;4.97;;;;;;;13.46;76.58;97368.45;1620133;88;21098;-66
2022/09/18 04:46:52;;;;;;;5.30;4.87;;;;;;;13.46;76.66;97360.96;1617734;88;21293;-66
2022/09/18 04:49:19;;;;;;;6.83;4.72;;;;;;;13.47;76.81;97363.41;1620840;88;21025;-66
2022/09/18 04:51:46;;;;;;;8.10;5.15;;;;;;;13.49;76.87;97361.30;1617822;88;21037;-66
2022/09/18 04:54:14;;;;;;;6.95;4.50;;;;;;;13.49;76.88;97360.48;1598439;88;21580;-65
2022/09/18 04:56:41;;;;;;;4.97;4.58;;;;;;;13.50;76.97;97358.11;1613243;88;21185;-66
2022/09/18 04:59:07;;;;;;;8.13;4.45;;;;;;;13.51;77.02;97359.20;1618762;88;21236;-66
2022/09/18 05:01:34;;;;;;;5.00;4.53;;;;;;;13.49;76.98;97354.63;1618457;88;21093;-66
2022/09/18 05:04:03;;;;;;;4.70;4.30;;;;;;;13.48;77.14;97344.16;1617326;88;21057;-66
2022/09/18 05:06:31;;;;;;;5.80;4.95;;;;;;;13.47;77.14;97343.38;1614365;88;21085;-66
2022/09/18 05:08:59;;;;;;;4.72;4.33;;;;;;;13.46;77.09;97335.07;1619088;88;21044;-66
2022/09/18 05:11:26;;;;;;;5.28;4.78;;;;;;;13.46;77.08;97332.40;1618048;88;21132;-66
2022/09/18 05:13:55;;;;;;;5.67;4.33;;;;;;;13.43;77.13;97326.20;1620838;88;21546;-66
2022/09/18 05:16:23;;;;;;;5.55;4.17;;;;;;;13.42;77.16;97326.45;1616178;88;21171;-66
2022/09/18 05:18:51;;;;;;;4.95;4.53;;;;;;;13.42;77.21;97330.45;1617356;88;21585;-65
2022/09/18 05:21:18;;;;;;;5.15;4.65;;;;;;;13.40;77.26;97324.55;1616519;88;21112;-68
2022/09/18 05:23:45;;;;;;;4.50;4.10;;;;;;;13.39;77.39;97322.92;1620486;88;21292;-66
2022/09/18 05:26:12;;;;;;;4.33;3.92;;;;;;;13.38;77.47;97319.95;1616796;88;21606;-66
2022/09/18 05:28:39;;;;;;;4.85;4.45;;;;;;;13.37;77.57;97314.34;1616560;88;21025;-66
2022/09/18 05:31:08;;;;;;;7.53;4.30;;;;;;;13.36;77.67;97320.20;1618306;88;21001;-66
2022/09/18 05:33:40;;;;;;;4.37;3.70;;;;;;;13.35;77.89;97317.23;1617133;88;21052;-66
2022/09/18 05:36:07;;;;;;;5.12;3.77;;;;;;;13.35;78.11;97313.23;1619036;88;21780;-66
2022/09/18 05:38:33;;;;;;;5.78;3.87;;;;;;;13.38;78.32;97310.08;1621098;88;20981;-67
2022/09/18 05:41:02;;;;;;;3.60;3.30;;;;;;;13.41;78.47;97310.13;1619512;88;21558;-66
2022/09/18 05:43:29;;;;;;;4.08;3.20;;;;;;;13.45;78.54;97302.72;1617133;88;20989;-66
2022/09/18 05:45:59;;;;;;;4.42;3.02;;;;;;;13.47;78.55;97297.16;1619532;88;20958;-67
2022/09/18 05:48:28;;;;;;;3.30;3.00;;;;;;;13.50;78.40;97288.12;1616906;88;21180;-66
2022/09/18 05:50:55;;;;;;;3.70;2.92;;;;;;;13.49;78.31;97287.85;1615994;88;20941;-66
2022/09/18 05:53:23;;;;;;;3.40;3.10;;;;;;;13.45;78.26;97284.03;1615624;88;21692;-66
2022/09/18 05:55:52;;;;;;;3.08;2.80;;;;;;;13.42;78.30;97279.19;1616762;88;21618;-66
2022/09/18 05:58:19;;;;;;;3.98;2.80;;;;;;;13.42;78.27;97271.18;1620812;88;21116;-67
2022/09/18 06:00:46;;;;;;;2.90;2.40;;;;;;;13.42;78.36;97267.69;1619407;88;21533;-66
2022/09/18 06:03:15;;;;;;;3.55;2.87;;;;;;;13.36;78.64;97272.66;1619739;88;20976;-66
2022/09/18 06:05:42;;;;;;;2.70;2.50;;;;;;;13.33;78.88;97267.27;1614985;88;21009;-66
2022/09/18 06:08:11;;;;;;;3.15;2.60;;;;;;;13.33;78.87;97268.61;1616010;88;21504;-66
2022/09/18 06:10:39;;;;;;;6.62;2.33;;;;;;;13.34;78.78;97268.90;1620655;88;20993;-66
2022/09/18 06:13:14;;;;;;;3.10;2.80;;;;;;;13.32;78.72;97274.98;1619008;88;21239;-66
2022/09/18 06:15:46;;;;;;;2.67;2.47;;;;;;;13.30;78.71;97274.94;1621589;87;21033;-66
2022/09/18 06:18:14;;;;;;;2.92;2.37;;;;;;;13.29;78.73;97278.16;1621904;87;21028;-66
2022/09/18 06:20:42;;;;;;;3.60;3.08;;;;;;;13.28;78.69;97278.38;1621949;88;21125;-65
2022/09/18 06:23:09;;;;;;;3.08;2.83;;;;;;;13.27;78.85;97280.78;1621755;88;21045;-66
2022/09/18 06:25:37;;;;;;;2.58;2.37;;;;;;;13.27;78.95;97282.12;1621068;87;21583;-66
2022/09/18 06:28:06;;;;;;;2.25;2.12;;;;;;;13.27;78.97;97284.23;1621431;88;20988;-66
2022/09/18 06:30:34;;;;;;;2.85;2.65;;;;;;;13.30;78.97;97278.95;1621874;88;20987;-66
2022/09/18 06:33:06;;;;;;;2.47;2.27;;;;;;;13.32;79.03;97270.98;1596182;88;21451;-66
2022/09/18 06:35:34;;;;;;;5.67;2.75;;;;;;;13.36;78.91;97273.47;1622572;87;21051;-66
2022/09/18 06:38:03;;;;;;;4.28;2.40;;;;;;;13.41;78.88;97282.91;1622684;87;21194;-66
2022/09/18 06:40:52;;;;;;;2.80;2.60;;;;;;;13.44;78.82;97283.76;1623763;87;21455;-66
2022/09/18 06:43:21;;;;;;;2.65;2.45;;;;;;;13.44;78.72;97279.75;1621133;88;20985;-66
2022/09/18 06:46:07;;;;;;;3.55;2.80;;;;;;;13.44;78.61;97280.27;1622561;87;21103;-66
2022/09/18 06:48:36;;;;;;;3.05;2.75;;;;;;;13.45;78.73;97275.23;1597210;88;21092;-66
2022/09/18 06:51:03;;;;;;;3.20;3.00;;;;;;;13.47;78.75;97271.27;1621727;88;21125;-66
2022/09/18 06:53:31;;;;;;;2.90;2.60;;;;;;;13.50;78.53;97278.77;1621111;88;21015;-66
2022/09/18 06:56:02;;;;;;;3.37;3.08;;;;;;;13.51;78.42;97280.41;1623635;87;21030;-66
2022/09/18 06:58:30;;;;;;;3.77;2.70;;;;;;;13.50;78.34;97278.77;1621671;87;20965;-66
2022/09/18 07:00:59;;;;;;;4.30;2.37;;;;;;;13.50;78.26;97278.77;1622001;88;20993;-66
2022/09/18 07:03:28;;;;;;;3.02;2.40;;;;;;;13.48;78.26;97276.88;1618378;87;21871;-66
2022/09/18 07:06:08;;;;;;;4.65;2.67;;;;;;;13.47;78.36;97275.79;1621805;87;21538;-66
2022/09/18 07:08:38;;;;;;;1.87;1.77;;;;;;;13.47;78.51;97271.27;1621428;88;21060;-66
2022/09/18 07:11:06;;;;;;;2.62;2.40;;;;;;;13.47;78.44;97276.61;1620816;88;21057;-66
2022/09/18 07:13:36;;;;;;;3.67;2.95;;;;;;;13.47;78.40;97278.46;1622029;88;20989;-66
2022/09/18 07:16:04;;;;;;;3.12;2.85;;;;;;;13.46;78.46;97280.31;1615143;88;22249;-66
2022/09/18 07:18:31;;;;;;;3.02;2.83;;;;;;;13.48;78.47;97287.55;1614727;88;20925;-67
2022/09/18 07:20:58;;;;;;;2.70;2.50;;;;;;;13.48;78.43;97294.23;1617548;88;21038;-68
2022/09/18 07:23:33;;;;;;;8.45;7.65;;;;;;;13.48;78.39;97298.76;1612113;88;21071;-66
2022/09/18 07:26:01;;;;;;;8.18;7.35;;;;;;;13.47;78.42;97310.52;1597950;88;21016;-67
2022/09/18 07:28:28;;;;;;;3.60;3.30;;;;;;;13.48;78.54;97308.92;1608376;88;21752;-66
2022/09/18 07:31:03;;;;;;;2.62;2.42;;;;;;;13.49;78.56;97308.41;1614796;88;21108;-65
2022/09/18 07:33:31;;;;;;;2.92;2.70;;;;;;;13.49;78.61;97317.75;1627434;87;21517;-65
2022/09/18 07:36:02;;;;;;;2.72;2.52;;;;;;;13.50;78.52;97316.16;1636462;87;21056;-65
2022/09/18 07:38:30;;;;;;;4.90;4.37;;;;;;;13.52;78.51;97321.28;1626946;87;21050;-66
2022/09/18 07:41:01;;;;;;;3.95;2.87;;;;;;;13.49;78.58;97318.57;1612618;87;22042;-66
2022/09/18 07:43:30;;;;;;;2.55;2.35;;;;;;;13.51;78.65;97313.79;1611448;87;21035;-66
2022/09/18 07:45:58;;;;;;;2.30;2.10;;;;;;;13.50;78.55;97310.82;1614600;87;21011;-67
2022/09/18 07:48:24;;;;;;;3.12;2.80;;;;;;;13.49;78.47;97307.88;1617169;87;21059;-67
2022/09/18 07:50:57;;;;;;;2.62;2.42;;;;;;;13.49;78.46;97312.41;1602857;88;21102;-66
2022/09/18 07:53:24;;;;;;;2.50;2.30;;;;;;;13.47;78.31;97321.20;1610158;88;22280;-67
2022/09/18 07:55:54;;;;;;;3.05;2.40;;;;;;;13.46;78.19;97315.56;1580047;88;21082;-66
2022/09/18 07:58:23;;;;;;;3.52;3.00;;;;;;;13.44;78.21;97317.66;1577691;89;21063;-67
2022/09/18 08:01:04;;;;;;;2.77;2.58;;;;;;;13.46;78.37;97320.90;1605965;88;21118;-66
2022/09/18 08:03:32;;;;;;;3.08;2.87;;;;;;;13.48;78.46;97322.80;1602152;88;21710;-66
2022/09/18 08:06:03;;;;;;;3.10;2.70;;;;;;;13.50;78.55;97314.05;1599493;88;21592;-66
2022/09/18 08:08:30;;;;;;;3.20;2.90;;;;;;;13.51;78.53;97315.12;1599448;88;21113;-66
2022/09/18 08:11:08;;;;;;;3.60;2.70;;;;;;;13.51;78.52;97312.45;1591199;88;21110;-65
2022/09/18 08:13:48;;;;;;;2.95;2.75;;;;;;;13.52;78.59;97310.08;1603345;88;21119;-66
2022/09/18 08:16:33;;;;;;;2.95;2.70;;;;;;;13.51;78.50;97312.45;1626199;88;21533;-65
2022/09/18 08:19:09;;;;;;;2.47;2.27;;;;;;;13.52;78.69;97311.41;1626956;88;21166;-65
2022/09/18 08:21:37;;;;;;;2.42;2.22;;;;;;;13.56;78.89;97307.72;1625413;88;20992;-65
2022/09/18 08:24:05;;;;;;;2.40;2.25;;;;;;;13.61;78.81;97313.96;1624192;88;21085;-65
2022/09/18 08:26:35;;;;;;;2.37;2.27;;;;;;;13.68;78.70;97306.33;1625288;86;21068;-66
2022/09/18 08:29:02;;;;;;;2.77;2.08;;;;;;;13.73;78.55;97307.22;1627971;86;21091;-67
2022/09/18 08:31:30;;;;;;;2.65;2.30;;;;;;;13.77;78.48;97298.17;1626825;86;21804;-66
2022/09/18 08:33:57;;;;;;;2.60;2.40;;;;;;;13.79;78.46;97296.09;1626442;88;21054;-65
2022/09/18 08:36:24;;;;;;;2.33;2.12;;;;;;;13.83;78.49;97298.03;1628930;87;21081;-66
2022/09/18 08:38:54;;;;;;;2.60;2.40;;;;;;;13.83;78.23;97298.03;1610873;87;21137;-67
2022/09/18 08:42:00;;;;;;;2.17;2.05;;;;;;;13.81;78.11;97293.47;1571907;88;21113;-67
2022/09/18 08:44:32;;;;;;;2.92;2.15;;;;;;;13.80;78.01;97296.36;1627993;88;21216;-67
2022/09/18 08:47:21;;;;;;;2.60;2.40;;;;;;;13.80;78.07;97295.02;1631174;87;20992;-67
2022/09/18 08:49:56;;;;;;;2.37;2.17;;;;;;;13.79;77.97;97293.42;1626026;88;21016;-66
2022/09/18 08:52:27;;;;;;;2.62;2.42;;;;;;;13.78;77.97;97291.27;1628663;88;21097;-66
2022/09/18 08:55:01;;;;;;;2.17;2.02;;;;;;;13.74;78.08;97288.78;1627642;88;21052;-66
2022/09/18 08:57:42;;;;;;;2.30;2.10;;;;;;;13.70;78.30;97280.98;1627607;87;21211;-68
2022/09/18 09:00:23;;;;;;;2.20;2.10;;;;;;;13.71;78.20;97279.13;1628583;88;20992;-66
2022/09/18 09:03:05;;;;;;;1.90;1.80;;;;;;;13.69;78.06;97283.91;1628032;87;28531;-66
2022/09/18 09:05:43;;;;;;;2.80;1.70;;;;;;;13.65;77.93;97284.91;1628422;87;21036;-67
2022/09/18 09:08:51;;;;;;;2.70;2.50;;;;;;;13.63;77.83;97281.68;1629934;87;21514;-66
2022/09/18 09:11:45;;;;;;;3.77;3.10;;;;;;;13.62;77.83;97288.06;1627263;87;21196;-67
2022/09/18 09:14:51;;;;;;;3.35;2.22;;;;;;;13.63;78.10;97291.03;1627383;87;21067;-66
2022/09/18 09:17:30;;;;;;;2.67;2.17;;;;;;;13.65;78.22;97285.43;1621028;88;21113;-67
2022/09/18 09:20:14;;;;;;;2.47;2.27;;;;;;;13.65;78.01;97286.77;1617212;87;21510;-66
2022/09/18 09:23:02;;;;;;;2.67;2.47;;;;;;;13.65;78.03;97282.76;1619637;88;20933;-66
2022/09/18 09:25:38;;;;;;;2.60;2.40;;;;;;;13.63;77.92;97287.80;1623959;87;21835;-67
2022/09/18 09:28:29;;;;;;;2.45;2.25;;;;;;;13.60;77.96;97292.84;1621834;87;21072;-67
2022/09/18 09:31:00;;;;;;;2.42;2.22;;;;;;;13.60;78.01;97300.86;1620377;87;21025;-66
2022/09/18 09:34:07;;;;;;;2.72;2.52;;;;;;;13.59;77.92;97296.03;1617634;88;21005;-67
2022/09/18 09:36:53;;;;;;;2.30;2.10;;;;;;;13.57;77.82;97297.33;1620428;88;21111;-66
2022/09/18 09:39:33;;;;;;;2.17;2.08;;;;;;;13.53;77.75;97298.33;1621125;88;21197;-66
2022/09/18 09:42:04;;;;;;;2.60;2.40;;;;;;;13.50;77.83;97297.47;1619706;87;20994;-65
2022/09/18 09:44:46;;;;;;;2.33;1.95;;;;;;;13.49;77.92;97294.53;1621837;88;21046;-66
2022/09/18 09:47:18;;;;;;;2.20;2.10;;;;;;;13.50;78.03;97300.69;1619067;87;21609;-70
2022/09/18 09:49:56;;;;;;;1.95;1.85;;;;;;;13.50;78.09;97302.02;1621528;88;21534;-66
2022/09/18 09:52:27;;;;;;;1.82;1.72;;;;;;;13.52;78.16;97303.41;1624034;87;21567;-66
2022/09/18 09:55:17;;;;;;;4.80;1.50;;;;;;;13.57;78.12;97300.81;1621253;88;21097;-67
2022/09/18 09:58:03;;;;;;;1.05;1.05;;;;;;;13.61;78.05;97307.28;1621607;88;21072;-67
2022/09/18 10:00:37;;;;;;;;;;;;;;;13.67;78.07;97316.72;1623478;87;21052;-67
2022/09/18 10:03:24;;;;;;;1.20;1.10;;;;;;;13.70;77.95;97324.25;1615556;88;20149;-66
2022/09/18 10:06:09;;;;;;;1.02;1.02;;;;;;;13.72;77.78;97328.82;1621632;88;22174;-70
2022/09/18 10:09:11;;;;;;;1.65;1.20;;;;;;;13.71;77.60;97326.70;1623088;87;20979;-67
2022/09/18 10:11:39;;;;;;;1.10;1.00;;;;;;;13.69;77.71;97326.66;1621542;87;21135;-67
2022/09/18 10:14:21;;;;;;;1.15;1.15;;;;;;;13.65;77.67;97333.00;1621863;87;21558;-66
2022/09/18 10:16:50;;;;;;;1.42;1.30;;;;;;;13.62;77.79;97336.15;1607236;87;21119;-66
2022/09/18 10:19:19;;;;;;;1.40;1.30;;;;;;;13.57;77.73;97342.73;1597995;88;21907;-65
2022/09/18 10:21:46;;;;;;;1.22;1.12;;;;;;;13.52;77.74;97342.13;1597222;89;21111;-66
2022/09/18 10:24:25;;;;;;;1.60;1.20;;;;;;;13.50;77.93;97344.21;1597416;89;20997;-66
2022/09/18 10:27:13;;;;;;;1.77;1.52;;;;;;;13.50;78.07;97343.42;1584814;88;21543;-67
2022/09/18 10:29:40;;;;;;;1.40;1.30;;;;;;;13.48;78.11;97346.84;1597392;89;21039;-66
2022/09/18 10:32:11;;;;;;;1.72;1.50;;;;;;;13.47;78.26;97353.25;1597397;89;21481;-65
2022/09/18 10:34:47;;;;;;;1.35;1.20;;;;;;;13.49;78.18;97354.63;1594458;89;20942;-66
2022/09/18 10:37:33;;;;;;;1.00;1.00;;;;;;;13.46;78.02;97351.09;1600653;88;21065;-66
2022/09/18 10:40:07;;;;;;;1.50;1.30;;;;;;;13.44;78.00;97359.88;1596883;89;21186;-68
2022/09/18 10:42:36;;;;;;;3.10;1.50;;;;;;;13.41;78.04;97359.02;1597166;89;21166;-65
2022/09/18 10:45:26;;;;;;;1.57;1.47;;;;;;;13.42;78.05;97359.83;1596519;89;21799;-65
2022/09/18 10:48:15;;;;;;;2.05;1.50;;;;;;;13.40;78.09;97366.73;1598589;88;21544;-67
2022/09/18 10:50:55;;;;;;;1.32;1.22;;;;;;;13.38;78.24;97373.36;1593021;88;21146;-66
2022/09/18 10:53:30;;;;;;;2.40;1.52;;;;;;;13.39;78.40;97373.66;1596960;89;21047;-65
2022/09/18 10:56:15;;;;;;;2.22;1.30;;;;;;;13.43;78.45;97375.61;1595994;89;21007;-67
2022/09/18 10:58:43;;;;;;;2.70;1.35;;;;;;;13.43;78.65;97378.80;1597194;88;21168;-69
2022/09/18 11:01:10;;;;;;;1.92;1.75;;;;;;;13.42;78.68;97375.86;1597171;89;21609;-67
2022/09/18 11:03:41;;;;;;;2.70;1.60;;;;;;;13.40;78.48;97382.75;1597877;88;21021;-68
2022/09/18 11:06:22;;;;;;;1.92;1.80;;;;;;;13.36;78.34;97388.30;1599145;88;21572;-65
2022/09/18 11:08:51;;;;;;;1.57;1.47;;;;;;;13.35;78.35;97388.52;1597548;88;21119;-68
2022/09/18 11:11:31;;;;;;;1.85;1.67;;;;;;;13.32;78.22;97395.14;1598292;88;21873;-68
2022/09/18 11:14:07;;;;;;;1.62;1.52;;;;;;;13.29;78.19;97395.65;1594948;89;21094;-67
2022/09/18 11:16:42;;;;;;;1.85;1.75;;;;;;;13.27;78.04;97399.05;1603275;88;21114;-67
2022/09/18 11:19:21;;;;;;;2.30;1.30;;;;;;;13.25;78.06;97403.83;1609785;88;21356;-68
2022/09/18 11:21:50;;;;;;;1.65;1.55;;;;;;;13.22;77.98;97400.29;1614294;88;21477;-65
2022/09/18 11:24:23;;;;;;;1.70;1.57;;;;;;;13.17;77.94;97410.88;1614398;88;21110;-67
2022/09/18 11:26:55;;;;;;;1.57;1.35;;;;;;;13.15;78.03;97409.48;1611933;88;21677;-68
2022/09/18 11:29:33;;;;;;;2.37;1.35;;;;;;;13.14;77.95;97414.56;1614560;88;21047;-67
2022/09/18 11:32:12;;;;;;;2.00;1.32;;;;;;;13.11;77.93;97409.17;1608941;88;20969;-68
2022/09/18 11:34:49;;;;;;;2.02;1.50;;;;;;;13.12;77.94;97412.63;1608494;88;20969;-68
2022/09/18 11:37:37;;;;;;;1.98;1.35;;;;;;;13.10;77.92;97409.39;1593981;88;21179;-66
2022/09/18 11:40:19;;;;;;;2.02;1.20;;;;;;;13.10;77.96;97418.73;1619742;88;21033;-67
2022/09/18 11:42:49;;;;;;;1.30;1.20;;;;;;;13.09;78.08;97423.25;1610072;88;21550;-67
2022/09/18 11:45:53;;;;;;;3.00;1.30;;;;;;;13.06;78.08;97424.23;1616301;88;21049;-67
2022/09/18 11:48:53;;;;;;;4.08;3.22;;;;;;;13.04;77.90;97429.78;1620613;88;21052;-65
2022/09/18 11:51:25;;;;;;;4.72;4.33;;;;;;;13.00;77.72;97431.31;1615107;88;21229;-66
2022/09/18 11:54:03;;;;;;;1.98;1.60;;;;;;;12.96;77.50;97435.48;1614541;88;21077;-64
2022/09/18 11:56:45;;;;;;;1.40;1.30;;;;;;;12.94;77.37;97438.40;1596150;88;21493;-67
2022/09/18 11:59:42;;;;;;;1.82;1.22;;;;;;;12.91;77.25;97438.86;1575093;88;21609;-71
2022/09/18 12:02:15;;;;;;;;;;;;;;;12.89;77.52;97446.81;1566706;90;21082;-70
2022/09/18 12:04:58;;;;;;;2.05;1.57;;;;;;;12.89;77.71;97447.63;1587817;88;21171;-71